Flight Briefing for CPX662

Departure Arrival
Miami International Airport (KMIA)
Click to view FAA NOTAMS
Orlando International Airport (KMCO)
Click to view FAA NOTAMS
Departure Time Arrival Time
N/A N/A
Aircraft Distance
SF340AF 167nm
Departure METAR Arrival METAR
KMIA 200953Z 34007KT 10SM SCT006 BKN040 BKN080 OVC150 18/18 A2995 RMK AO2 RAB10E22 SLP143 P0000 T01780178 KMCO 200953Z 35012KT 3SM -RA SCT004 BKN008 OVC016 14/13 A3006 RMK AO2 SFC VIS 7 RAB24 SLP177 P0001 T01440133
Suggested Route
HEDLY2 HEDLY J53 PHK BAIRN4


View recent IFR Routes data
Notes



Charts and Procedures

Charts for KMIA
No chart available
Charts for KMCO
No chart available

Windy.com Weather Map